Lery, Canada
Current Conditions -  °F | °C
As of 5:00 AM on Saturday 20 Dec 2014 (Local Time) from CYUL Reporting Station
Clear Clear  
Wind Chill:   Ceiling: Unl
Heat Index:   Visibility: 15mi
Dew Point:   Wind: 2mph
Humidity: 92%   Direction: 350°N
Pressure: 30.3"   Gusts: NA
Location:  45.33°N, 73.82°W
Report Text: CYUL 201000Z 35002KT 15SM SKC M13/M14 A3030 RMK SLP262
Loading
Personal Weather Stations






























Interactive Weather Map New forecast layout! Learn more

10-Day Weather Forecast

Advertisements
Track Severe Weather on mobile